sensor_id;sensor_type;location;lat;lon;timestamp;pressure;altitude;pressure_sealevel;temperature;humidity
73674;BME280;61975;48.660;10.164;2022-11-30T00:01:18;95768.19;;;5.40;100.00
73674;BME280;61975;48.660;10.164;2022-11-30T00:03:44;95763.84;;;5.39;100.00
73674;BME280;61975;48.660;10.164;2022-11-30T00:06:12;95766.94;;;5.38;100.00
73674;BME280;61975;48.660;10.164;2022-11-30T00:08:38;95771.63;;;5.37;100.00
73674;BME280;61975;48.660;10.164;2022-11-30T00:11:12;95770.03;;;5.36;100.00
73674;BME280;61975;48.660;10.164;2022-11-30T00:13:37;95775.19;;;5.38;100.00
73674;BME280;61975;48.660;10.164;2022-11-30T00:16:03;95773.13;;;5.35;100.00
73674;BME280;61975;48.660;10.164;2022-11-30T00:18:29;95776.22;;;5.33;100.00
73674;BME280;61975;48.660;10.164;2022-11-30T00:20:59;95767.50;;;5.31;100.00
73674;BME280;61975;48.660;10.164;2022-11-30T00:23:25;95773.47;;;5.33;100.00
73674;BME280;61975;48.660;10.164;2022-11-30T00:25:50;95775.75;;;5.31;100.00
73674;BME280;61975;48.660;10.164;2022-11-30T00:28:15;95778.84;;;5.30;100.00
73674;BME280;61975;48.660;10.164;2022-11-30T00:30:41;95776.91;;;5.30;100.00
73674;BME280;61975;48.660;10.164;2022-11-30T00:33:06;95778.84;;;5.30;100.00
73674;BME280;61975;48.660;10.164;2022-11-30T00:35:32;95774.84;;;5.27;100.00
73674;BME280;61975;48.660;10.164;2022-11-30T00:38:00;95775.31;;;5.29;100.00
73674;BME280;61975;48.660;10.164;2022-11-30T00:40:26;95776.91;;;5.30;100.00
73674;BME280;61975;48.660;10.164;2022-11-30T00:42:51;95774.63;;;5.32;100.00
73674;BME280;61975;48.660;10.164;2022-11-30T00:45:16;95778.97;;;5.33;100.00
73674;BME280;61975;48.660;10.164;2022-11-30T00:47:42;95782.06;;;5.32;100.00
73674;BME280;61975;48.660;10.164;2022-11-30T00:50:08;95785.50;;;5.29;100.00
73674;BME280;61975;48.660;10.164;2022-11-30T00:52:33;95783.56;;;5.29;100.00
73674;BME280;61975;48.660;10.164;2022-11-30T00:54:58;95780.34;;;5.27;100.00
73674;BME280;61975;48.660;10.164;2022-11-30T00:57:24;95787.81;;;5.27;100.00
73674;BME280;61975;48.660;10.164;2022-11-30T00:59:49;95777.59;;;5.27;100.00
73674;BME280;61975;48.660;10.164;2022-11-30T01:02:14;95783.09;;;5.27;100.00
73674;BME280;61975;48.660;10.164;2022-11-30T01:04:40;95802.84;;;5.29;100.00
73674;BME280;61975;48.660;10.164;2022-11-30T01:07:05;95789.06;;;5.29;100.00
73674;BME280;61975;48.660;10.164;2022-11-30T01:09:31;95788.72;;;5.31;100.00
73674;BME280;61975;48.660;10.164;2022-11-30T01:11:56;95798.94;;;5.30;100.00
73674;BME280;61975;48.660;10.164;2022-11-30T01:14:21;95798.47;;;5.28;100.00
73674;BME280;61975;48.660;10.164;2022-11-30T01:16:47;95801.13;;;5.25;100.00
73674;BME280;61975;48.660;10.164;2022-11-30T01:19:12;95801.13;;;5.25;100.00
73674;BME280;61975;48.660;10.164;2022-11-30T01:21:38;95795.50;;;5.21;100.00
73674;BME280;61975;48.660;10.164;2022-11-30T01:24:03;95806.88;;;5.20;100.00
73674;BME280;61975;48.660;10.164;2022-11-30T01:26:29;95812.72;;;5.18;100.00
73674;BME280;61975;48.660;10.164;2022-11-30T01:28:54;95807.22;;;5.18;100.00
73674;BME280;61975;48.660;10.164;2022-11-30T01:31:21;95812.38;;;5.20;100.00
73674;BME280;61975;48.660;10.164;2022-11-30T01:33:52;95815.00;;;5.16;100.00
73674;BME280;61975;48.660;10.164;2022-11-30T01:36:21;95815.25;;;5.11;100.00
73674;BME280;61975;48.660;10.164;2022-11-30T01:38:53;95815.25;;;5.11;100.00
73674;BME280;61975;48.660;10.164;2022-11-30T01:41:30;95819.94;;;5.11;100.00
73674;BME280;61975;48.660;10.164;2022-11-30T01:44:39;95815.94;;;5.08;100.00
73674;BME280;61975;48.660;10.164;2022-11-30T01:46:52;95822.44;;;5.04;100.00
73674;BME280;61975;48.660;10.164;2022-11-30T01:49:26;95824.38;;;5.03;100.00
73674;BME280;61975;48.660;10.164;2022-11-30T01:54:25;95829.78;;;5.00;100.00
73674;BME280;61975;48.660;10.164;2022-11-30T01:57:03;95827.81;;;5.00;100.00
73674;BME280;61975;48.660;10.164;2022-11-30T01:59:30;95834.13;;;5.01;100.00
73674;BME280;61975;48.660;10.164;2022-11-30T02:01:56;95836.56;;;5.02;100.00
73674;BME280;61975;48.660;10.164;2022-11-30T02:04:32;95829.31;;;4.98;100.00
73674;BME280;61975;48.660;10.164;2022-11-30T02:07:00;95837.91;;;4.96;100.00
73674;BME280;61975;48.660;10.164;2022-11-30T02:09:28;95837.13;;;4.96;100.00
73674;BME280;61975;48.660;10.164;2022-11-30T02:11:55;95837.00;;;4.92;100.00
73674;BME280;61975;48.660;10.164;2022-11-30T02:14:41;95835.59;;;4.86;100.00
73674;BME280;61975;48.660;10.164;2022-11-30T02:19:56;95839.63;;;4.77;100.00
73674;BME280;61975;48.660;10.164;2022-11-30T02:30:47;95842.13;;;4.70;100.00
73674;BME280;61975;48.660;10.164;2022-11-30T02:33:17;95840.19;;;4.70;100.00
73674;BME280;61975;48.660;10.164;2022-11-30T02:35:48;95837.78;;;4.69;100.00
73674;BME280;61975;48.660;10.164;2022-11-30T02:38:14;95849.13;;;4.67;100.00
73674;BME280;61975;48.660;10.164;2022-11-30T02:40:43;95847.97;;;4.68;100.00
73674;BME280;61975;48.660;10.164;2022-11-30T02:43:08;95850.72;;;4.68;100.00
73674;BME280;61975;48.660;10.164;2022-11-30T02:48:19;95842.03;;;4.66;100.00
73674;BME280;61975;48.660;10.164;2022-11-30T02:50:53;95836.84;;;4.65;100.00
73674;BME280;61975;48.660;10.164;2022-11-30T02:53:20;95842.69;;;4.63;100.00
73674;BME280;61975;48.660;10.164;2022-11-30T02:55:46;95839.28;;;4.66;100.00
73674;BME280;61975;48.660;10.164;2022-11-30T02:58:13;95840.53;;;4.69;100.00
73674;BME280;61975;48.660;10.164;2022-11-30T03:00:39;95845.69;;;4.70;100.00
73674;BME280;61975;48.660;10.164;2022-11-30T03:03:04;95841.31;;;4.69;100.00
73674;BME280;61975;48.660;10.164;2022-11-30T03:05:30;95832.72;;;4.71;100.00
73674;BME280;61975;48.660;10.164;2022-11-30T03:07:55;95834.34;;;4.72;100.00
73674;BME280;61975;48.660;10.164;2022-11-30T03:10:20;95837.88;;;4.72;100.00
73674;BME280;61975;48.660;10.164;2022-11-30T03:12:46;95832.63;;;4.67;100.00
73674;BME280;61975;48.660;10.164;2022-11-30T03:15:11;95836.84;;;4.65;100.00
73674;BME280;61975;48.660;10.164;2022-11-30T03:17:37;95837.53;;;4.62;100.00
73674;BME280;61975;48.660;10.164;2022-11-30T03:20:03;95842.91;;;4.58;100.00
73674;BME280;61975;48.660;10.164;2022-11-30T03:22:28;95835.81;;;4.57;100.00
73674;BME280;61975;48.660;10.164;2022-11-30T03:24:54;95845.97;;;4.57;100.00
73674;BME280;61975;48.660;10.164;2022-11-30T03:27:19;95836.16;;;4.56;100.00
73674;BME280;61975;48.660;10.164;2022-11-30T03:29:44;95843.56;;;4.55;100.00
73674;BME280;61975;48.660;10.164;2022-11-30T03:32:10;95845.19;;;4.56;100.00
73674;BME280;61975;48.660;10.164;2022-11-30T03:34:35;95847.63;;;4.58;100.00
73674;BME280;61975;48.660;10.164;2022-11-30T03:37:01;95841.31;;;4.57;100.00
73674;BME280;61975;48.660;10.164;2022-11-30T03:39:26;95840.63;;;4.60;100.00
73674;BME280;61975;48.660;10.164;2022-11-30T03:41:51;95841.06;;;4.62;100.00
73674;BME280;61975;48.660;10.164;2022-11-30T03:44:17;95836.72;;;4.61;100.00
73674;BME280;61975;48.660;10.164;2022-11-30T03:46:43;95841.88;;;4.63;100.00
73674;BME280;61975;48.660;10.164;2022-11-30T03:49:08;95833.28;;;4.64;100.00
73674;BME280;61975;48.660;10.164;2022-11-30T03:51:34;95831.34;;;4.65;100.00
73674;BME280;61975;48.660;10.164;2022-11-30T03:53:59;95836.84;;;4.65;100.00
73674;BME280;61975;48.660;10.164;2022-11-30T03:56:25;95838.31;;;4.62;100.00
73674;BME280;61975;48.660;10.164;2022-11-30T03:58:50;95833.63;;;4.63;100.00
73674;BME280;61975;48.660;10.164;2022-11-30T04:01:18;95833.63;;;4.63;100.00
73674;BME280;61975;48.660;10.164;2022-11-30T04:03:48;95832.03;;;4.62;100.00
73674;BME280;61975;48.660;10.164;2022-11-30T04:06:14;95842.22;;;4.61;100.00
73674;BME280;61975;48.660;10.164;2022-11-30T04:08:40;95834.31;;;4.60;100.00
73674;BME280;61975;48.660;10.164;2022-11-30T04:11:06;95842.91;;;4.58;100.00
73674;BME280;61975;48.660;10.164;2022-11-30T04:13:33;95834.22;;;4.56;100.00
73674;BME280;61975;48.660;10.164;2022-11-30T04:15:59;95832.56;;;4.55;100.00
73674;BME280;61975;48.660;10.164;2022-11-30T04:18:26;95830.97;;;4.54;100.00
73674;BME280;61975;48.660;10.164;2022-11-30T04:20:53;95827.78;;;4.52;100.00
73674;BME280;61975;48.660;10.164;2022-11-30T04:23:20;95830.06;;;4.50;100.00
73674;BME280;61975;48.660;10.164;2022-11-30T04:25:45;95832.34;;;4.48;100.00
73674;BME280;61975;48.660;10.164;2022-11-30T04:28:12;95833.72;;;4.42;100.00
73674;BME280;61975;48.660;10.164;2022-11-30T04:30:38;95829.69;;;4.40;100.00
73674;BME280;61975;48.660;10.164;2022-11-30T04:33:04;95838.97;;;4.35;100.00
73674;BME280;61975;48.660;10.164;2022-11-30T04:35:30;95837.34;;;4.34;100.00
73674;BME280;61975;48.660;10.164;2022-11-30T04:37:56;95845.13;;;4.32;100.00
73674;BME280;61975;48.660;10.164;2022-11-30T04:40:22;95844.22;;;4.28;100.00
73674;BME280;61975;48.660;10.164;2022-11-30T04:42:47;95842.59;;;4.27;100.00
73674;BME280;61975;48.660;10.164;2022-11-30T04:45:13;95849.22;;;4.26;100.00
73674;BME280;61975;48.660;10.164;2022-11-30T04:47:38;95847.97;;;4.24;100.00
73674;BME280;61975;48.660;10.164;2022-11-30T04:50:05;95843.25;;;4.24;100.00
73674;BME280;61975;48.660;10.164;2022-11-30T04:52:30;95846.34;;;4.23;100.00
73674;BME280;61975;48.660;10.164;2022-11-30T04:54:56;95851.72;;;4.19;100.00
73674;BME280;61975;48.660;10.164;2022-11-30T04:57:21;95857.88;;;4.16;100.00
73674;BME280;61975;48.660;10.164;2022-11-30T04:59:47;95849.97;;;4.15;100.00
73674;BME280;61975;48.660;10.164;2022-11-30T05:02:12;95851.13;;;4.14;100.00
73674;BME280;61975;48.660;10.164;2022-11-30T05:04:38;95858.22;;;4.15;100.00
73674;BME280;61975;48.660;10.164;2022-11-30T05:07:03;95857.88;;;4.16;100.00
73674;BME280;61975;48.660;10.164;2022-11-30T05:09:29;95858.38;;;4.18;100.00
73674;BME280;61975;48.660;10.164;2022-11-30T05:11:54;95860.78;;;4.20;100.00
73674;BME280;61975;48.660;10.164;2022-11-30T05:14:20;95856.53;;;4.22;100.00
73674;BME280;61975;48.660;10.164;2022-11-30T05:16:46;95862.03;;;4.22;100.00
73674;BME280;61975;48.660;10.164;2022-11-30T05:19:12;95869.13;;;4.23;100.00
73674;BME280;61975;48.660;10.164;2022-11-30T05:21:38;95852.31;;;4.25;100.00
73674;BME280;61975;48.660;10.164;2022-11-30T05:24:04;95860.06;;;4.23;100.00
73674;BME280;61975;48.660;10.164;2022-11-30T05:26:29;95869.13;;;4.23;100.00
73674;BME280;61975;48.660;10.164;2022-11-30T05:28:55;95864.13;;;4.25;100.00
73674;BME280;61975;48.660;10.164;2022-11-30T05:31:20;95872.34;;;4.25;100.00
73674;BME280;61975;48.660;10.164;2022-11-30T05:33:49;95868.47;;;4.26;100.00
73674;BME280;61975;48.660;10.164;2022-11-30T05:36:15;95864.13;;;4.25;100.00
73674;BME280;61975;48.660;10.164;2022-11-30T05:38:40;95869.59;;;4.25;100.00
73674;BME280;61975;48.660;10.164;2022-11-30T05:41:06;95872.81;;;4.27;100.00
73674;BME280;61975;48.660;10.164;2022-11-30T05:43:31;95873.63;;;4.28;100.00
73674;BME280;61975;48.660;10.164;2022-11-30T05:46:01;95879.59;;;4.30;100.00
73674;BME280;61975;48.660;10.164;2022-11-30T05:48:27;95881.19;;;4.31;100.00
73674;BME280;61975;48.660;10.164;2022-11-30T05:50:53;95872.47;;;4.29;100.00
73674;BME280;61975;48.660;10.164;2022-11-30T05:53:19;95868.94;;;4.28;100.00
73674;BME280;61975;48.660;10.164;2022-11-30T05:58:11;95874.44;;;4.28;100.00
73674;BME280;61975;48.660;10.164;2022-11-30T06:00:36;95881.97;;;4.31;100.00
73674;BME280;61975;48.660;10.164;2022-11-30T06:03:02;95878.91;;;4.33;100.00
73674;BME280;61975;48.660;10.164;2022-11-30T06:05:27;95881.31;;;4.34;100.00
73674;BME280;61975;48.660;10.164;2022-11-30T06:07:53;95882.13;;;4.35;100.00
73674;BME280;61975;48.660;10.164;2022-11-30T06:10:20;95880.63;;;4.37;100.00
73674;BME280;61975;48.660;10.164;2022-11-30T06:12:45;95878.69;;;4.38;100.00
73674;BME280;61975;48.660;10.164;2022-11-30T06:15:12;95870.13;;;4.39;100.00
73674;BME280;61975;48.660;10.164;2022-11-30T06:17:38;95868.97;;;4.40;100.00
73674;BME280;61975;48.660;10.164;2022-11-30T06:20:04;95869.44;;;4.42;100.00
73674;BME280;61975;48.660;10.164;2022-11-30T06:22:30;95868.28;;;4.43;100.00
73674;BME280;61975;48.660;10.164;2022-11-30T06:24:55;95874.59;;;4.44;100.00
73674;BME280;61975;48.660;10.164;2022-11-30T06:27:21;95882.84;;;4.44;100.00
73674;BME280;61975;48.660;10.164;2022-11-30T06:29:46;95875.38;;;4.44;100.00
73674;BME280;61975;48.660;10.164;2022-11-30T06:32:12;95881.38;;;4.46;100.00
73674;BME280;61975;48.660;10.164;2022-11-30T06:34:37;95884.13;;;4.46;100.00
73674;BME280;61975;48.660;10.164;2022-11-30T06:37:03;95881.03;;;4.48;100.00
73674;BME280;61975;48.660;10.164;2022-11-30T06:39:28;95880.09;;;4.44;100.00
73674;BME280;61975;48.660;10.164;2022-11-30T06:41:53;95879.75;;;4.45;100.00
73674;BME280;61975;48.660;10.164;2022-11-30T06:44:19;95877.00;;;4.45;100.00
73674;BME280;61975;48.660;10.164;2022-11-30T06:46:45;95888.78;;;4.46;100.00
73674;BME280;61975;48.660;10.164;2022-11-30T06:49:10;95884.13;;;4.46;100.00
73674;BME280;61975;48.660;10.164;2022-11-30T06:51:36;95882.97;;;4.47;100.00
73674;BME280;61975;48.660;10.164;2022-11-30T06:54:06;95894.78;;;4.48;100.00
73674;BME280;61975;48.660;10.164;2022-11-30T06:56:32;95888.13;;;4.49;100.00
73674;BME280;61975;48.660;10.164;2022-11-30T06:58:57;95884.22;;;4.50;100.00
73674;BME280;61975;48.660;10.164;2022-11-30T07:01:22;95881.47;;;4.50;100.00
73674;BME280;61975;48.660;10.164;2022-11-30T07:03:48;95879.19;;;4.52;100.00
73674;BME280;61975;48.660;10.164;2022-11-30T07:06:14;95873.38;;;4.53;100.00
73674;BME280;61975;48.660;10.164;2022-11-30T07:08:41;95880.94;;;4.56;100.00
73674;BME280;61975;48.660;10.164;2022-11-30T07:11:07;95877.03;;;4.57;100.00
73674;BME280;61975;48.660;10.164;2022-11-30T07:13:34;95877.50;;;4.59;100.00
73674;BME280;61975;48.660;10.164;2022-11-30T07:16:05;95883.13;;;4.63;100.00
73674;BME280;61975;48.660;10.164;2022-11-30T07:18:32;95877.28;;;4.64;100.00
73674;BME280;61975;48.660;10.164;2022-11-30T07:20:58;95883.25;;;4.66;100.00
73674;BME280;61975;48.660;10.164;2022-11-30T07:23:25;95885.31;;;4.69;100.00
73674;BME280;61975;48.660;10.164;2022-11-30T07:26:11;95882.34;;;4.74;100.00
73674;BME280;61975;48.660;10.164;2022-11-30T07:28:41;95882.03;;;4.76;100.00
73674;BME280;61975;48.660;10.164;2022-11-30T07:33:48;95886.84;;;4.79;100.00
73674;BME280;61975;48.660;10.164;2022-11-30T07:36:14;95897.03;;;4.78;100.00
73674;BME280;61975;48.660;10.164;2022-11-30T07:38:41;95895.53;;;4.81;100.00
73674;BME280;61975;48.660;10.164;2022-11-30T07:41:06;95904.25;;;4.83;100.00
73674;BME280;61975;48.660;10.164;2022-11-30T07:43:32;95896.47;;;4.85;100.00
73674;BME280;61975;48.660;10.164;2022-11-30T07:45:58;95903.25;;;4.87;100.00
73674;BME280;61975;48.660;10.164;2022-11-30T07:48:24;95901.28;;;4.88;100.00
73674;BME280;61975;48.660;10.164;2022-11-30T07:50:49;95908.41;;;4.89;100.00
73674;BME280;61975;48.660;10.164;2022-11-30T07:53:15;95904.38;;;4.86;100.00
73674;BME280;61975;48.660;10.164;2022-11-30T07:55:41;95909.09;;;4.86;100.00
73674;BME280;61975;48.660;10.164;2022-11-30T07:58:07;95902.91;;;4.89;100.00
73674;BME280;61975;48.660;10.164;2022-11-30T08:00:34;95912.41;;;4.91;100.00
73674;BME280;61975;48.660;10.164;2022-11-30T08:03:00;95914.84;;;4.93;100.00
73674;BME280;61975;48.660;10.164;2022-11-30T08:05:26;95905.44;;;4.94;100.00
73674;BME280;61975;48.660;10.164;2022-11-30T08:07:52;95914.03;;;4.92;100.00
73674;BME280;61975;48.660;10.164;2022-11-30T08:10:22;95910.44;;;4.92;100.00
73674;BME280;61975;48.660;10.164;2022-11-30T08:12:48;95912.09;;;4.93;100.00
73674;BME280;61975;48.660;10.164;2022-11-30T08:15:14;95920.34;;;4.93;100.00
73674;BME280;61975;48.660;10.164;2022-11-30T08:17:40;95914.16;;;4.96;100.00
73674;BME280;61975;48.660;10.164;2022-11-30T08:20:07;95920.09;;;4.98;100.00
73674;BME280;61975;48.660;10.164;2022-11-30T08:22:33;95925.25;;;4.99;100.00
73674;BME280;61975;48.660;10.164;2022-11-30T08:24:59;95919.91;;;5.03;100.00
73674;BME280;61975;48.660;10.164;2022-11-30T08:27:25;95925.50;;;5.06;100.00
73674;BME280;61975;48.660;10.164;2022-11-30T08:29:51;95932.59;;;5.07;100.00
73674;BME280;61975;48.660;10.164;2022-11-30T08:32:17;95929.66;;;5.12;100.00
73674;BME280;61975;48.660;10.164;2022-11-30T08:34:42;95930.91;;;5.15;100.00
73674;BME280;61975;48.660;10.164;2022-11-30T08:37:07;95932.50;;;5.16;100.00
73674;BME280;61975;48.660;10.164;2022-11-30T08:39:33;95929.75;;;5.16;100.00
73674;BME280;61975;48.660;10.164;2022-11-30T08:41:59;95921.97;;;5.18;100.00
73674;BME280;61975;48.660;10.164;2022-11-30T08:44:26;95920.13;;;5.22;100.00
73674;BME280;61975;48.660;10.164;2022-11-30T08:46:52;95921.84;;;5.14;100.00
73674;BME280;61975;48.660;10.164;2022-11-30T08:49:17;95925.97;;;5.08;100.00
73674;BME280;61975;48.660;10.164;2022-11-30T08:51:45;95922.31;;;5.04;100.00
73674;BME280;61975;48.660;10.164;2022-11-30T08:54:10;95919.31;;;5.09;100.00
73674;BME280;61975;48.660;10.164;2022-11-30T08:56:36;95922.66;;;5.15;100.00
73674;BME280;61975;48.660;10.164;2022-11-30T08:59:01;95925.06;;;5.16;100.00
73674;BME280;61975;48.660;10.164;2022-11-30T09:01:26;95922.31;;;5.16;100.00
73674;BME280;61975;48.660;10.164;2022-11-30T09:03:54;95930.56;;;5.16;100.00
73674;BME280;61975;48.660;10.164;2022-11-30T09:06:22;95930.00;;;5.23;100.00
73674;BME280;61975;48.660;10.164;2022-11-30T09:08:49;95936.53;;;5.30;100.00
73674;BME280;61975;48.660;10.164;2022-11-30T09:11:20;95937.25;;;5.39;100.00
73674;BME280;61975;48.660;10.164;2022-11-30T09:13:47;95934.72;;;5.46;100.00
73674;BME280;61975;48.660;10.164;2022-11-30T09:16:13;95936.44;;;5.51;100.00
73674;BME280;61975;48.660;10.164;2022-11-30T09:18:39;95935.75;;;5.54;100.00
73674;BME280;61975;48.660;10.164;2022-11-30T09:21:10;95935.53;;;5.59;100.00
73674;BME280;61975;48.660;10.164;2022-11-30T09:23:36;95932.53;;;5.64;100.00
73674;BME280;61975;48.660;10.164;2022-11-30T09:26:05;95934.72;;;5.70;100.00
73674;BME280;61975;48.660;10.164;2022-11-30T09:28:31;95933.22;;;5.73;100.00
73674;BME280;61975;48.660;10.164;2022-11-30T09:31:01;95929.91;;;5.67;100.00
73674;BME280;61975;48.660;10.164;2022-11-30T09:33:26;95923.38;;;5.72;100.00
73674;BME280;61975;48.660;10.164;2022-11-30T09:36:00;95918.44;;;5.78;100.00
73674;BME280;61975;48.660;10.164;2022-11-30T09:38:26;95930.22;;;5.78;100.00
73674;BME280;61975;48.660;10.164;2022-11-30T09:40:57;95934.97;;;5.78;100.00
73674;BME280;61975;48.660;10.164;2022-11-30T09:46:13;95931.41;;;5.65;100.00
73674;BME280;61975;48.660;10.164;2022-11-30T09:48:50;95938.63;;;5.57;100.00
73674;BME280;61975;48.660;10.164;2022-11-30T09:51:33;95934.72;;;5.58;100.00
73674;BME280;61975;48.660;10.164;2022-11-30T09:54:05;95935.88;;;5.57;100.00
73674;BME280;61975;48.660;10.164;2022-11-30T09:56:37;95931.97;;;5.58;100.00
73674;BME280;61975;48.660;10.164;2022-11-30T10:01:44;95927.38;;;5.62;100.00
73674;BME280;61975;48.660;10.164;2022-11-30T10:04:25;95933.69;;;5.63;100.00
73674;BME280;61975;48.660;10.164;2022-11-30T10:09:59;95931.28;;;5.61;100.00
73674;BME280;61975;48.660;10.164;2022-11-30T10:12:37;95933.78;;;5.66;100.00
73674;BME280;61975;48.660;10.164;2022-11-30T10:18:20;95936.22;;;5.68;100.00
73674;BME280;61975;48.660;10.164;2022-11-30T10:26:11;95934.28;;;5.56;100.00
73674;BME280;61975;48.660;10.164;2022-11-30T10:31:11;95926.25;;;5.63;100.00
73674;BME280;61975;48.660;10.164;2022-11-30T10:33:42;95922.09;;;5.69;100.00
73674;BME280;61975;48.660;10.164;2022-11-30T10:36:12;95924.16;;;5.72;100.00
73674;BME280;61975;48.660;10.164;2022-11-30T10:38:49;95922.31;;;5.76;100.00
73674;BME280;61975;48.660;10.164;2022-11-30T10:41:24;95923.47;;;5.75;100.00
73674;BME280;61975;48.660;10.164;2022-11-30T10:44:10;95922.31;;;5.76;100.00
73674;BME280;61975;48.660;10.164;2022-11-30T10:46:43;95927.13;;;5.79;100.00
73674;BME280;61975;48.660;10.164;2022-11-30T10:49:18;95925.66;;;5.82;100.00
73674;BME280;61975;48.660;10.164;2022-11-30T10:51:48;95916.38;;;5.87;100.00
73674;BME280;61975;48.660;10.164;2022-11-30T10:54:19;95912.81;;;5.86;100.00
73674;BME280;61975;48.660;10.164;2022-11-30T10:56:46;95908.09;;;5.87;100.00
73674;BME280;61975;48.660;10.164;2022-11-30T10:59:32;95912.09;;;5.89;100.00
73674;BME280;61975;48.660;10.164;2022-11-30T11:02:00;95911.75;;;5.91;100.00
73674;BME280;61975;48.660;10.164;2022-11-30T11:04:26;95915.00;;;5.93;100.00
73674;BME280;61975;48.660;10.164;2022-11-30T11:07:07;95910.38;;;5.97;100.00
73674;BME280;61975;48.660;10.164;2022-11-30T11:12:14;95908.53;;;6.01;100.00
73674;BME280;61975;48.660;10.164;2022-11-30T11:14:40;95906.47;;;5.98;100.00
73674;BME280;61975;48.660;10.164;2022-11-30T11:19:45;95904.88;;;5.97;100.00
73674;BME280;61975;48.660;10.164;2022-11-30T11:22:23;95904.06;;;5.96;100.00
73674;BME280;61975;48.660;10.164;2022-11-30T11:24:52;95903.38;;;5.99;100.00
73674;BME280;61975;48.660;10.164;2022-11-30T11:27:27;95897.28;;;6.06;100.00
73674;BME280;61975;48.660;10.164;2022-11-30T11:32:36;95896.34;;;6.14;100.00
73674;BME280;61975;48.660;10.164;2022-11-30T11:35:01;95894.06;;;6.16;100.00
73674;BME280;61975;48.660;10.164;2022-11-30T11:37:31;95898.84;;;6.19;100.00
73674;BME280;61975;48.660;10.164;2022-11-30T11:40:13;95898.97;;;6.22;100.00
73674;BME280;61975;48.660;10.164;2022-11-30T11:42:54;95893.91;;;6.24;100.00
73674;BME280;61975;48.660;10.164;2022-11-30T11:45:31;95890.81;;;6.26;100.00
73674;BME280;61975;48.660;10.164;2022-11-30T11:48:05;95893.31;;;6.31;100.00
73674;BME280;61975;48.660;10.164;2022-11-30T11:50:35;95894.53;;;6.33;100.00
73674;BME280;61975;48.660;10.164;2022-11-30T11:55:54;95902.38;;;6.31;100.00
73674;BME280;61975;48.660;10.164;2022-11-30T11:58:31;95892.41;;;6.27;100.00
73674;BME280;61975;48.660;10.164;2022-11-30T12:01:01;95894.59;;;6.21;100.00
73674;BME280;61975;48.660;10.164;2022-11-30T12:03:37;95896.06;;;6.19;100.00
73674;BME280;61975;48.660;10.164;2022-11-30T12:06:13;95894.06;;;6.16;100.00
73674;BME280;61975;48.660;10.164;2022-11-30T12:08:52;95893.59;;;6.14;100.00
73674;BME280;61975;48.660;10.164;2022-11-30T12:11:24;95890.34;;;6.12;100.00
73674;BME280;61975;48.660;10.164;2022-11-30T12:13:50;95887.59;;;6.12;100.00
73674;BME280;61975;48.660;10.164;2022-11-30T12:21:30;95888.88;;;6.14;100.00
73674;BME280;61975;48.660;10.164;2022-11-30T12:29:17;95881.75;;;6.13;100.00
73674;BME280;61975;48.660;10.164;2022-11-30T12:32:15;95883.59;;;6.09;100.00
73674;BME280;61975;48.660;10.164;2022-11-30T12:37:25;95883.94;;;6.08;100.00
73674;BME280;61975;48.660;10.164;2022-11-30T12:43:01;95888.75;;;6.11;100.00
73674;BME280;61975;48.660;10.164;2022-11-30T12:45:48;95890.34;;;6.12;100.00
73674;BME280;61975;48.660;10.164;2022-11-30T12:51:46;95885.53;;;6.21;100.00
73674;BME280;61975;48.660;10.164;2022-11-30T12:57:24;95885.88;;;6.19;100.00
73674;BME280;61975;48.660;10.164;2022-11-30T13:00:07;95900.00;;;6.18;100.00
73674;BME280;61975;48.660;10.164;2022-11-30T13:05:28;95895.44;;;6.10;100.00
73674;BME280;61975;48.660;10.164;2022-11-30T13:08:06;95894.97;;;6.08;100.00
73674;BME280;61975;48.660;10.164;2022-11-30T13:10:44;95892.56;;;6.06;100.00
73674;BME280;61975;48.660;10.164;2022-11-30T13:13:17;95891.66;;;6.02;100.00
73674;BME280;61975;48.660;10.164;2022-11-30T13:15:43;95882.47;;;5.98;100.00
73674;BME280;61975;48.660;10.164;2022-11-30T13:18:16;95887.19;;;5.98;100.00
73674;BME280;61975;48.660;10.164;2022-11-30T13:31:45;95875.28;;;5.57;100.00
73674;BME280;61975;48.660;10.164;2022-11-30T13:34:25;95877.59;;;5.55;100.00
73674;BME280;61975;48.660;10.164;2022-11-30T13:37:00;95883.09;;;5.55;100.00
73674;BME280;61975;48.660;10.164;2022-11-30T13:39:29;95886.31;;;5.57;100.00
73674;BME280;61975;48.660;10.164;2022-11-30T13:44:30;95884.72;;;5.56;100.00
73674;BME280;61975;48.660;10.164;2022-11-30T13:46:57;95881.63;;;5.58;100.00
73674;BME280;61975;48.660;10.164;2022-11-30T13:49:27;95889.19;;;5.49;100.00
73674;BME280;61975;48.660;10.164;2022-11-30T13:51:54;95893.09;;;5.48;100.00
73674;BME280;61975;48.660;10.164;2022-11-30T13:54:38;95887.25;;;5.49;100.00
73674;BME280;61975;48.660;10.164;2022-11-30T13:59:45;95895.50;;;5.49;100.00
73674;BME280;61975;48.660;10.164;2022-11-30T14:02:47;95896.28;;;5.50;100.00
73674;BME280;61975;48.660;10.164;2022-11-30T14:10:38;95895.63;;;5.41;100.00
73674;BME280;61975;48.660;10.164;2022-11-30T14:13:26;95900.41;;;5.44;100.00
73674;BME280;61975;48.660;10.164;2022-11-30T14:16:00;95901.69;;;5.46;100.00
73674;BME280;61975;48.660;10.164;2022-11-30T14:18:40;95895.03;;;5.47;100.00
73674;BME280;61975;48.660;10.164;2022-11-30T14:21:16;95894.00;;;5.52;100.00
73674;BME280;61975;48.660;10.164;2022-11-30T14:26:43;95890.91;;;5.53;100.00
73674;BME280;61975;48.660;10.164;2022-11-30T14:29:17;95885.41;;;5.53;100.00
73674;BME280;61975;48.660;10.164;2022-11-30T14:34:23;95883.78;;;5.52;100.00
73674;BME280;61975;48.660;10.164;2022-11-30T14:36:54;95884.59;;;5.53;100.00
73674;BME280;61975;48.660;10.164;2022-11-30T14:39:40;95888.94;;;5.54;100.00
73674;BME280;61975;48.660;10.164;2022-11-30T14:42:19;95892.50;;;5.54;100.00